Time;durP1;ratioP1;P1;durP2;ratioP2;P2;SDS_P1;SDS_P2;PMS_P1;PMS_P2;Temp;Humidity;BMP_temperature;BMP_pressure;BME280_temperature;BME280_humidity;BME280_pressure;Samples;Min_cycle;Max_cycle;Signal;HPM_P1;HPM_P2
2022/08/19 00:00:45;;;;;;;29.30;5.55;;;;;;;17.95;100.00;100101.55;1763118;81;21516;-45
2022/08/19 00:03:12;;;;;;;22.17;5.25;;;;;;;17.94;100.00;100112.09;1762929;81;20951;-45
2022/08/19 00:05:41;;;;;;;12.05;5.00;;;;;;;17.93;100.00;100113.02;1762905;81;20962;-45
2022/08/19 00:08:08;;;;;;;18.80;5.85;;;;;;;17.92;100.00;100106.09;1762985;81;20931;-44
2022/08/19 00:10:35;;;;;;;20.85;5.25;;;;;;;17.93;100.00;100111.71;1762927;81;21292;-45
2022/08/19 00:13:04;;;;;;;15.05;5.65;;;;;;;17.93;100.00;100113.84;1762905;81;20951;-45
2022/08/19 00:15:30;;;;;;;16.42;5.05;;;;;;;17.94;100.00;100114.70;1762915;81;20891;-45
2022/08/19 00:17:58;;;;;;;19.00;5.90;;;;;;;17.96;100.00;100111.54;1762853;81;20994;-45
2022/08/19 00:20:25;;;;;;;25.60;5.42;;;;;;;17.97;100.00;100102.75;1762818;81;21049;-45
2022/08/19 00:22:52;;;;;;;16.60;5.47;;;;;;;17.97;100.00;100096.20;1732905;81;21027;-44
2022/08/19 00:25:19;;;;;;;11.25;4.62;;;;;;;17.95;100.00;100100.23;1762753;81;20923;-45
2022/08/19 00:27:47;;;;;;;27.80;5.25;;;;;;;17.93;100.00;100089.45;1762936;81;20943;-45
2022/08/19 00:30:14;;;;;;;21.15;5.20;;;;;;;17.90;100.00;100097.00;1763034;81;21505;-45
2022/08/19 00:32:42;;;;;;;18.70;5.70;;;;;;;17.88;100.00;100087.56;1754104;81;20975;-45
2022/08/19 00:35:09;;;;;;;16.57;4.95;;;;;;;17.85;100.00;100085.95;1762793;81;21214;-45
2022/08/19 00:37:36;;;;;;;16.35;5.42;;;;;;;17.84;100.00;100084.73;1762738;81;21002;-45
2022/08/19 00:40:05;;;;;;;12.63;5.10;;;;;;;17.83;100.00;100084.36;1762947;81;20999;-45
2022/08/19 00:42:33;;;;;;;21.55;5.37;;;;;;;17.80;100.00;100091.42;1763189;81;20907;-45
2022/08/19 00:45:00;;;;;;;15.18;5.35;;;;;;;17.76;100.00;100088.59;1762736;81;20900;-45
2022/08/19 00:47:26;;;;;;;10.90;5.12;;;;;;;17.75;100.00;100091.31;1763009;81;21472;-45
2022/08/19 00:49:57;;;;;;;15.58;4.90;;;;;;;17.73;100.00;100099.23;1762888;81;20979;-45
2022/08/19 00:52:33;;;;;;;21.45;5.60;;;;;;;17.71;100.00;100093.72;1762938;81;20896;-44
2022/08/19 00:55:00;;;;;;;15.85;4.87;;;;;;;17.70;100.00;100098.09;1731859;81;21748;-45
2022/08/19 00:57:37;;;;;;;17.20;5.42;;;;;;;17.70;100.00;100094.66;1762815;81;20943;-45
2022/08/19 01:00:12;;;;;;;11.38;4.80;;;;;;;17.67;100.00;100095.65;1762870;81;21218;-45
2022/08/19 01:02:39;;;;;;;18.23;5.35;;;;;;;17.65;100.00;100093.10;1763005;81;20898;-44
2022/08/19 01:05:09;;;;;;;13.50;5.12;;;;;;;17.61;100.00;100095.51;1762911;81;21385;-45
2022/08/19 01:07:37;;;;;;;18.52;5.00;;;;;;;17.62;100.00;100098.98;1762771;81;20955;-45
2022/08/19 01:10:09;;;;;;;17.25;5.30;;;;;;;17.58;100.00;100096.16;1762890;81;21418;-45
2022/08/19 01:12:36;;;;;;;15.88;5.00;;;;;;;17.55;100.00;100104.14;1762795;81;21044;-45
2022/08/19 01:15:06;;;;;;;19.17;4.72;;;;;;;17.50;100.00;100103.93;1762732;81;20947;-45
2022/08/19 01:17:33;;;;;;;14.55;4.72;;;;;;;17.46;100.00;100105.50;1763221;81;21551;-45
2022/08/19 01:20:01;;;;;;;19.45;4.90;;;;;;;17.42;100.00;100107.88;1762744;81;20947;-45
2022/08/19 01:22:46;;;;;;;16.90;4.45;;;;;;;17.38;100.00;100105.90;1762791;81;20912;-44
2022/08/19 01:25:15;;;;;;;16.55;4.80;;;;;;;17.35;100.00;100113.91;1762792;81;21854;-44
2022/08/19 01:27:47;;;;;;;19.80;4.92;;;;;;;17.31;100.00;100107.16;1762666;81;20899;-44
2022/08/19 01:30:17;;;;;;;13.35;4.80;;;;;;;17.27;100.00;100108.22;1763167;81;20979;-45
2022/08/19 01:32:44;;;;;;;17.48;5.17;;;;;;;17.21;100.00;100112.84;1762780;81;21530;-44
2022/08/19 01:35:12;;;;;;;11.00;4.35;;;;;;;17.18;100.00;100112.17;1762778;81;20986;-44
2022/08/19 01:37:48;;;;;;;12.53;4.67;;;;;;;17.14;100.00;100110.17;1762788;81;21212;-45
2022/08/19 01:40:16;;;;;;;;;;;;;;;17.13;100.00;100111.09;1765390;81;21520;-44
2022/08/19 01:42:42;;;;;;;13.10;4.60;;;;;;;17.13;100.00;100106.31;1762890;81;20133;-45
2022/08/19 01:45:10;;;;;;;18.87;5.45;;;;;;;17.09;100.00;100103.03;1762900;81;21465;-45
2022/08/19 01:47:37;;;;;;;15.55;4.90;;;;;;;17.12;100.00;100112.47;1762965;81;20943;-45
2022/08/19 01:50:06;;;;;;;15.45;4.72;;;;;;;17.11;100.00;100114.25;1762901;81;21174;-45
2022/08/19 01:52:41;;;;;;;17.27;4.83;;;;;;;17.09;100.00;100113.49;1762798;81;21480;-45
2022/08/19 01:55:11;;;;;;;13.70;4.15;;;;;;;17.06;100.00;100109.73;1762454;81;20987;-45
2022/08/19 01:57:38;;;;;;;13.75;4.50;;;;;;;17.04;100.00;100110.23;1754393;81;20919;-45
2022/08/19 02:00:08;;;;;;;19.77;4.87;;;;;;;17.02;100.00;100109.03;1763548;80;20978;-44
2022/08/19 02:02:37;;;;;;;22.65;4.62;;;;;;;17.01;100.00;100111.70;1760127;81;21090;-44
2022/08/19 02:05:04;;;;;;;9.35;4.33;;;;;;;17.02;100.00;100109.03;1790255;80;20910;-45
2022/08/19 02:07:32;;;;;;;20.50;4.75;;;;;;;17.03;100.00;100109.41;1737816;81;20896;-44
2022/08/19 02:10:03;;;;;;;16.30;4.53;;;;;;;17.04;100.00;100112.86;1790357;79;20872;-44
2022/08/19 02:12:31;;;;;;;16.70;4.85;;;;;;;17.05;100.00;100112.79;1738721;81;20916;-44
2022/08/19 02:14:59;;;;;;;17.32;4.30;;;;;;;17.05;100.00;100112.79;1790224;79;21227;-44
2022/08/19 02:17:28;;;;;;;15.53;4.10;;;;;;;17.04;100.00;100108.94;1737629;81;21018;-45
2022/08/19 02:19:56;;;;;;;12.68;3.98;;;;;;;17.00;100.00;100113.94;1790376;79;21547;-44
2022/08/19 02:22:25;;;;;;;12.73;4.08;;;;;;;16.96;100.00;100121.08;1763718;81;20876;-44
2022/08/19 02:24:54;;;;;;;16.75;4.67;;;;;;;16.94;100.00;100121.63;1790368;80;20840;-45
2022/08/19 02:27:22;;;;;;;16.60;4.42;;;;;;;16.91;100.00;100122.61;1737511;81;21163;-44
2022/08/19 02:29:49;;;;;;;10.08;4.40;;;;;;;16.88;100.00;100123.21;1790200;80;21518;-45
2022/08/19 02:32:18;;;;;;;9.68;4.33;;;;;;;16.83;100.00;100123.47;1763667;81;20939;-45
2022/08/19 02:34:47;;;;;;;15.58;5.10;;;;;;;16.80;100.00;100123.62;1790492;80;20926;-45
2022/08/19 02:39:59;;;;;;;12.73;4.67;;;;;;;16.78;100.00;100128.05;1790571;78;21220;-45
2022/08/19 02:42:26;;;;;;;18.50;4.70;;;;;;;16.79;100.00;100128.44;1763780;81;21496;-44
2022/08/19 02:44:55;;;;;;;19.02;4.85;;;;;;;16.80;100.00;100129.68;1790242;80;20915;-45
2022/08/19 02:47:22;;;;;;;13.65;4.65;;;;;;;16.81;100.00;100125.31;1738177;81;21050;-44
2022/08/19 02:49:53;;;;;;;15.95;4.83;;;;;;;16.80;100.00;100126.23;1790438;80;21456;-44
2022/08/19 02:52:17;;;;;;;9.83;4.00;;;;;;;16.80;100.00;100123.62;1762444;81;22085;-45
2022/08/19 02:54:45;;;;;;;12.18;4.37;;;;;;;16.81;100.00;100129.23;1790300;80;20860;-44
2022/08/19 02:57:11;;;;;;;18.45;5.15;;;;;;;16.81;100.00;100126.14;1763423;81;20926;-44
2022/08/19 02:59:40;;;;;;;10.13;4.53;;;;;;;16.80;100.00;100125.76;1784976;79;20891;-45
2022/08/19 03:04:04;;;;;;;9.25;4.78;;;;;;;16.86;100.00;100129.84;1816305;79;22566;-44
2022/08/19 03:06:31;;;;;;;20.05;4.95;;;;;;;16.82;100.00;100125.70;1789490;80;21204;-43
2022/08/19 03:08:58;;;;;;;12.50;4.90;;;;;;;16.81;100.00;100122.22;1789345;80;21236;-44
2022/08/19 03:11:31;;;;;;;12.07;4.30;;;;;;;16.81;100.00;100119.61;1773658;80;20939;-43
2022/08/19 03:13:58;;;;;;;11.53;4.45;;;;;;;16.82;100.00;100117.85;1789179;80;20892;-44
2022/08/19 03:16:27;;;;;;;14.83;4.20;;;;;;;16.81;100.00;100115.69;1789329;80;20932;-45
2022/08/19 03:18:54;;;;;;;16.37;4.62;;;;;;;16.82;100.00;100119.16;1789324;80;20944;-45
2022/08/19 03:21:23;;;;;;;22.27;4.75;;;;;;;16.83;100.00;100119.98;1789440;80;21135;-45
2022/08/19 03:23:55;;;;;;;19.35;4.58;;;;;;;16.84;100.00;100119.92;1789307;80;20885;-44
2022/08/19 03:26:22;;;;;;;21.25;4.85;;;;;;;16.86;100.00;100120.69;1789406;80;20861;-44
2022/08/19 03:28:49;;;;;;;5.33;3.87;;;;;;;16.88;100.00;100118.84;1789283;80;20912;-44
2022/08/19 03:31:19;;;;;;;21.20;4.50;;;;;;;16.92;100.00;100119.07;1758510;80;20971;-44
2022/08/19 03:33:46;;;;;;;15.55;5.05;;;;;;;16.95;100.00;100122.83;1789232;80;21214;-44
2022/08/19 03:36:16;;;;;;;22.65;4.70;;;;;;;17.00;100.00;100120.47;1789226;80;20880;-44
2022/08/19 03:38:49;;;;;;;16.37;4.47;;;;;;;17.03;100.00;100112.47;1789515;80;21524;-45
2022/08/19 03:41:19;;;;;;;17.20;4.50;;;;;;;17.09;100.00;100124.78;1789439;80;21003;-45
2022/08/19 03:43:46;;;;;;;15.85;4.30;;;;;;;17.17;100.00;100121.78;1789525;80;21472;-44
2022/08/19 03:46:16;;;;;;;19.70;4.00;;;;;;;17.21;100.00;100123.30;1773767;80;21269;-45
2022/08/19 03:48:43;;;;;;;16.82;4.37;;;;;;;17.27;100.00;100121.29;1789147;80;22232;-45
2022/08/19 03:51:20;;;;;;;14.03;4.12;;;;;;;17.32;100.00;100121.92;1789269;80;20876;-45
2022/08/19 03:53:47;;;;;;;13.03;3.75;;;;;;;17.38;100.00;100128.13;1789312;80;20932;-43
2022/08/19 03:56:14;;;;;;;12.85;4.08;;;;;;;17.46;100.00;100136.41;1789567;80;20932;-43
2022/08/19 03:58:41;;;;;;;10.38;3.83;;;;;;;17.53;100.00;100143.02;1789288;80;21189;-44
2022/08/19 04:01:14;;;;;;;18.10;4.80;;;;;;;17.60;100.00;100136.17;1789177;80;20935;-44
2022/08/19 04:03:40;;;;;;;26.07;4.62;;;;;;;17.68;100.00;100139.21;1785273;80;20889;-44
2022/08/19 04:06:20;;;;;;;16.05;4.20;;;;;;;17.80;100.00;100142.47;1784040;80;20928;-44
2022/08/19 04:08:53;;;;;;;18.48;4.35;;;;;;;17.91;100.00;100139.75;1784284;80;21418;-43
2022/08/19 04:11:24;;;;;;;13.00;3.77;;;;;;;18.03;100.00;100150.05;1783959;80;21227;-44
2022/08/19 04:13:52;;;;;;;16.70;3.80;;;;;;;18.15;100.00;100149.84;1783831;80;20987;-44
2022/08/19 04:16:21;;;;;;;14.30;4.03;;;;;;;18.27;100.00;100141.78;1783205;80;20967;-44
2022/08/19 04:18:48;;;;;;;16.45;4.30;;;;;;;18.45;100.00;100142.52;1783386;80;21489;-44
2022/08/19 04:21:19;;;;;;;18.12;4.33;;;;;;;18.58;100.00;100151.83;1783544;80;20897;-44
2022/08/19 04:23:46;;;;;;;15.38;3.98;;;;;;;18.73;100.00;100158.83;1783283;80;21039;-44
2022/08/19 04:26:33;;;;;;;18.50;3.65;;;;;;;18.83;100.00;100159.15;1783557;80;21422;-44
2022/08/19 04:29:03;;;;;;;8.00;3.55;;;;;;;18.96;100.00;100154.03;1783457;80;21402;-45
2022/08/19 04:31:35;;;;;;;14.55;3.37;;;;;;;18.98;100.00;100160.48;1783328;80;20893;-45
2022/08/19 04:34:01;;;;;;;13.13;3.95;;;;;;;18.94;100.00;100164.60;1783113;80;21391;-45
2022/08/19 04:36:31;;;;;;;18.52;4.25;;;;;;;18.95;100.00;100172.02;1783497;80;21143;-45
2022/08/19 04:39:00;;;;;;;18.90;3.50;;;;;;;18.94;100.00;100167.67;1783242;80;21434;-45
2022/08/19 04:44:13;;;;;;;15.05;4.28;;;;;;;18.98;100.00;100170.97;1753739;80;21494;-45
2022/08/19 04:46:40;;;;;;;13.58;3.70;;;;;;;18.96;100.00;100169.77;1783529;80;20940;-46
2022/08/19 04:49:08;;;;;;;13.35;3.27;;;;;;;19.00;100.00;100179.17;1783372;80;21091;-44
2022/08/19 04:51:35;;;;;;;14.73;3.67;;;;;;;19.08;100.00;100178.73;1783311;80;21486;-43
2022/08/19 04:54:02;;;;;;;14.35;3.85;;;;;;;19.09;100.00;100174.69;1783465;80;21003;-43
2022/08/19 04:56:29;;;;;;;24.12;4.83;;;;;;;19.18;100.00;100170.69;1753047;80;20984;-43
2022/08/19 04:58:56;;;;;;;13.40;3.65;;;;;;;19.22;100.00;100177.44;1783378;80;20987;-43
2022/08/19 05:01:28;;;;;;;30.80;3.90;;;;;;;19.26;100.00;100177.25;1783327;80;21289;-44
2022/08/19 05:03:56;;;;;;;20.45;3.52;;;;;;;19.29;100.00;100177.06;1783272;80;20928;-44
2022/08/19 05:06:23;;;;;;;8.70;3.45;;;;;;;19.36;100.00;100179.23;1783701;80;20904;-44
2022/08/19 05:08:50;;;;;;;13.88;3.50;;;;;;;19.42;100.00;100179.80;1783352;80;21325;-44
2022/08/19 05:11:20;;;;;;;11.35;3.72;;;;;;;19.47;100.00;100179.08;1783356;80;20885;-45
2022/08/19 05:13:48;;;;;;;11.05;4.05;;;;;;;19.50;100.00;100181.03;1783204;80;20969;-44
2022/08/19 05:16:17;;;;;;;11.28;3.22;;;;;;;19.47;100.00;100175.97;1783297;80;20880;-44
2022/08/19 05:24:16;;;;;;;20.62;4.12;;;;;;;19.81;100.00;100181.77;1783633;80;21521;-45
2022/08/19 05:26:46;;;;;;;21.37;4.15;;;;;;;19.93;100.00;100180.69;1783368;80;21242;-45
2022/08/19 05:29:18;;;;;;;12.98;3.92;;;;;;;20.03;100.00;100179.16;1783694;80;20911;-44
2022/08/19 05:31:45;;;;;;;19.17;4.12;;;;;;;20.07;100.00;100185.08;1783467;80;20936;-44
2022/08/19 05:34:13;;;;;;;9.75;3.37;;;;;;;20.15;100.00;100180.17;1783504;80;20913;-44
2022/08/19 05:36:44;;;;;;;12.73;3.83;;;;;;;20.20;100.00;100185.98;1783343;80;20908;-44
2022/08/19 05:39:15;;;;;;;11.65;3.92;;;;;;;20.34;100.00;100185.13;1783218;80;21187;-44
2022/08/19 05:41:44;;;;;;;13.65;3.95;;;;;;;20.48;100.00;100180.30;1783387;80;20904;-44
2022/08/19 05:44:11;;;;;;;8.45;3.60;;;;;;;20.54;100.00;100184.30;1783327;80;20892;-44
2022/08/19 05:46:38;;;;;;;14.25;4.17;;;;;;;20.55;100.00;100183.35;1783429;80;20900;-45
2022/08/19 05:49:06;;;;;;;11.80;3.50;;;;;;;20.61;100.00;100186.92;1783387;80;20964;-44
2022/08/19 05:51:34;;;;;;;24.75;4.50;;;;;;;20.71;100.00;100187.62;1783389;80;21136;-44
2022/08/19 05:54:02;;;;;;;12.23;4.28;;;;;;;20.80;100.00;100187.90;1783277;80;21375;-44
2022/08/19 05:56:30;;;;;;;17.02;3.90;;;;;;;20.83;100.00;100181.58;1783488;80;20967;-44
2022/08/19 05:58:58;;;;;;;12.85;4.45;;;;;;;20.85;100.00;100184.98;1783100;80;20940;-44
2022/08/19 06:01:25;;;;;;;16.57;4.42;;;;;;;20.86;100.00;100193.23;1752866;80;20932;-44
2022/08/19 06:03:52;;;;;;;16.70;4.53;;;;;;;20.89;100.00;100190.40;1778605;80;22135;-44
2022/08/19 06:06:19;;;;;;;20.65;4.20;;;;;;;21.04;100.00;100196.88;1775060;80;20952;-44
2022/08/19 06:08:49;;;;;;;16.67;4.17;;;;;;;21.22;100.00;100202.73;1775095;80;20926;-44
2022/08/19 06:11:23;;;;;;;14.93;3.75;;;;;;;21.33;100.00;100198.88;1775085;80;20968;-45
2022/08/19 06:13:53;;;;;;;12.30;4.22;;;;;;;21.49;100.00;100205.25;1773964;80;21441;-44
2022/08/19 06:16:24;;;;;;;18.60;3.85;;;;;;;21.64;100.00;100209.11;1775139;80;21155;-44
2022/08/19 06:18:53;;;;;;;13.60;4.20;;;;;;;21.68;100.00;100221.14;1774637;80;20920;-44
2022/08/19 06:21:22;;;;;;;24.43;5.67;;;;;;;21.74;100.00;100215.94;1774912;80;21327;-44
2022/08/19 06:23:50;;;;;;;12.10;4.10;;;;;;;21.86;100.00;100221.65;1774960;80;20960;-44
2022/08/19 06:26:19;;;;;;;15.03;4.70;;;;;;;22.00;100.00;100231.71;1775661;80;20972;-44
2022/08/19 06:28:46;;;;;;;11.75;4.00;;;;;;;22.10;100.00;100232.73;1774870;80;21020;-44
2022/08/19 06:31:15;;;;;;;21.73;4.45;;;;;;;22.19;100.00;100233.88;1774967;80;20881;-44
2022/08/19 06:33:43;;;;;;;20.65;4.25;;;;;;;22.32;100.00;100234.67;1775049;80;20921;-44
2022/08/19 06:36:27;;;;;;;17.23;4.20;;;;;;;22.46;99.68;100236.81;1775133;80;20924;-44
2022/08/19 06:38:54;;;;;;;15.32;4.03;;;;;;;22.55;98.29;100240.61;1774970;80;21003;-44
2022/08/19 06:41:21;;;;;;;17.90;4.45;;;;;;;22.65;99.42;100241.61;1775088;80;21178;-44
2022/08/19 06:43:48;;;;;;;16.65;4.83;;;;;;;22.74;98.08;100240.96;1775039;80;20885;-44
2022/08/19 06:46:16;;;;;;;11.40;4.35;;;;;;;22.82;98.38;100246.97;1774956;79;21465;-44
2022/08/19 06:48:43;;;;;;;16.32;4.65;;;;;;;22.87;97.26;100234.30;1774902;80;21734;-44
2022/08/19 06:51:10;;;;;;;14.10;3.80;;;;;;;22.94;97.61;100240.80;1775167;80;20912;-44
2022/08/19 06:53:39;;;;;;;9.88;4.80;;;;;;;23.08;96.89;100233.64;1775164;80;21227;-44
2022/08/19 06:56:06;;;;;;;15.83;4.65;;;;;;;23.22;96.67;100232.59;1775096;80;20984;-44
2022/08/19 06:58:33;;;;;;;17.45;4.75;;;;;;;23.33;96.22;100234.00;1775109;80;20963;-44
2022/08/19 07:01:03;;;;;;;11.93;4.15;;;;;;;23.41;95.52;100241.80;1774879;80;20901;-44
2022/08/19 07:03:33;;;;;;;20.48;4.90;;;;;;;23.45;93.39;100244.10;1777478;80;21656;-44
2022/08/19 07:06:09;;;;;;;15.63;3.98;;;;;;;23.44;94.07;100241.56;1783624;80;21138;-44
2022/08/19 07:08:37;;;;;;;19.52;4.45;;;;;;;23.39;94.42;100241.94;1749871;80;20900;-44
2022/08/19 07:11:08;;;;;;;12.45;4.60;;;;;;;23.43;92.69;100242.06;1783378;80;21003;-44
2022/08/19 07:13:36;;;;;;;22.50;4.83;;;;;;;23.53;94.02;100245.67;1782938;80;20933;-44
2022/08/19 07:16:07;;;;;;;23.42;4.62;;;;;;;23.70;92.13;100246.18;1783083;80;20893;-44
2022/08/19 07:18:36;;;;;;;21.20;4.75;;;;;;;23.83;91.92;100249.53;1783257;80;21444;-44
2022/08/19 07:21:18;;;;;;;19.73;5.67;;;;;;;23.97;91.58;100248.95;1783433;80;21011;-44
2022/08/19 07:23:45;;;;;;;20.43;5.53;;;;;;;24.05;89.61;100241.78;1783262;80;20959;-44
2022/08/19 07:26:19;;;;;;;14.58;4.90;;;;;;;24.16;89.27;100244.89;1783257;80;20936;-44
2022/08/19 07:28:47;;;;;;;13.58;4.87;;;;;;;24.24;87.83;100245.12;1783590;80;21600;-44
2022/08/19 07:31:21;;;;;;;18.90;4.60;;;;;;;24.30;87.75;100243.80;1783290;80;21031;-44
2022/08/19 07:33:49;;;;;;;18.12;4.92;;;;;;;24.35;88.22;100242.94;1782706;80;20965;-43
2022/08/19 07:36:19;;;;;;;12.28;4.97;;;;;;;24.39;88.88;100249.19;1783243;80;20921;-44
2022/08/19 07:38:48;;;;;;;14.50;5.03;;;;;;;24.53;89.06;100247.22;1783081;80;20901;-43
2022/08/19 07:41:18;;;;;;;28.10;5.33;;;;;;;24.72;88.07;100246.55;1783427;80;20984;-43
2022/08/19 07:43:45;;;;;;;16.25;5.12;;;;;;;24.94;87.53;100241.71;1783293;80;21159;-43
2022/08/19 07:46:13;;;;;;;28.25;5.37;;;;;;;25.14;85.74;100236.57;1783213;80;21033;-44
2022/08/19 07:48:42;;;;;;;18.60;5.62;;;;;;;25.27;86.10;100233.73;1783232;80;20892;-44
2022/08/19 07:51:10;;;;;;;16.23;5.53;;;;;;;25.43;85.66;100233.27;1782633;80;20924;-44
2022/08/19 07:53:37;;;;;;;19.30;5.30;;;;;;;25.62;83.87;100233.88;1783461;80;20932;-43
2022/08/19 07:56:05;;;;;;;19.52;5.45;;;;;;;25.75;84.56;100240.29;1752797;80;21247;-44
2022/08/19 07:58:37;;;;;;;17.07;5.53;;;;;;;25.90;82.82;100237.30;1783190;80;20861;-44
2022/08/19 08:01:06;;;;;;;18.42;5.83;;;;;;;25.94;82.55;100244.00;1783713;80;20983;-44
2022/08/19 08:09:10;;;;;;;16.85;5.95;;;;;;;26.25;81.89;100249.29;1783578;80;22390;-44
2022/08/19 08:11:48;;;;;;;14.85;5.60;;;;;;;26.49;80.14;100247.58;1783167;80;21472;-44
2022/08/19 08:14:13;;;;;;;24.25;5.92;;;;;;;26.53;80.80;100249.01;1782970;80;21023;-44
2022/08/19 08:16:43;;;;;;;17.65;5.67;;;;;;;26.61;79.43;100249.63;1783330;80;20999;-44
2022/08/19 08:19:09;;;;;;;23.98;6.37;;;;;;;26.68;79.29;100250.77;1783462;80;20999;-44
2022/08/19 08:21:36;;;;;;;18.12;5.75;;;;;;;26.77;79.84;100253.05;1783671;80;21804;-44
2022/08/19 08:24:04;;;;;;;27.10;5.92;;;;;;;26.94;77.75;100251.58;1783325;80;20971;-44
2022/08/19 08:26:31;;;;;;;18.87;6.00;;;;;;;26.96;79.35;100255.41;1748299;80;20889;-45
2022/08/19 08:28:58;;;;;;;23.20;6.30;;;;;;;27.17;77.83;100248.62;1783478;80;21032;-44
2022/08/19 08:31:25;;;;;;;25.92;6.42;;;;;;;27.30;76.30;100242.16;1783435;80;20987;-44
2022/08/19 08:33:52;;;;;;;21.45;5.83;;;;;;;27.44;75.02;100251.50;1783322;80;21920;-44
2022/08/19 08:36:19;;;;;;;14.00;5.58;;;;;;;27.52;74.45;100251.16;1783230;80;20971;-44
2022/08/19 08:38:45;;;;;;;15.60;5.80;;;;;;;27.47;75.48;100250.73;1783405;80;20975;-44
2022/08/19 08:41:53;;;;;;;18.02;6.67;;;;;;;27.30;76.88;100250.13;1783286;80;21580;-44
2022/08/19 08:44:39;;;;;;;21.50;6.45;;;;;;;27.30;76.23;100246.14;1783466;80;21470;-44
2022/08/19 08:47:12;;;;;;;15.25;5.90;;;;;;;27.45;75.55;100252.70;1781996;80;21286;-44
2022/08/19 08:49:46;;;;;;;17.17;6.33;;;;;;;27.68;75.48;100249.73;1783171;80;20908;-44
2022/08/19 08:52:29;;;;;;;17.00;6.47;;;;;;;27.93;73.13;100255.38;1783415;80;20920;-44
2022/08/19 08:54:58;;;;;;;16.77;7.08;;;;;;;28.14;74.30;100259.11;1783176;80;20971;-44
2022/08/19 08:57:33;;;;;;;19.82;7.50;;;;;;;28.34;72.19;100261.70;1752345;80;20983;-44
2022/08/19 09:00:04;;;;;;;21.15;7.12;;;;;;;28.35;72.58;100257.55;1781641;80;21181;-45
2022/08/19 09:02:30;;;;;;;24.87;6.62;;;;;;;28.44;71.34;100270.45;1783715;80;20888;-44
2022/08/19 09:04:57;;;;;;;17.98;6.35;;;;;;;28.51;70.77;100268.86;1783143;80;20857;-44
2022/08/19 09:08:04;;;;;;;12.28;5.72;;;;;;;28.54;71.77;100277.05;1783063;80;20991;-44
2022/08/19 09:10:47;;;;;;;22.17;7.40;;;;;;;28.38;71.22;100271.05;1783136;80;20979;-44
2022/08/19 09:13:42;;;;;;;19.80;7.08;;;;;;;28.31;71.62;100270.81;1783287;80;22134;-44
2022/08/19 09:16:20;;;;;;;21.00;8.18;;;;;;;28.42;70.55;100271.09;1783158;80;20880;-44
2022/08/19 09:18:53;;;;;;;15.93;6.67;;;;;;;28.58;71.43;100265.61;1783376;80;20893;-44
2022/08/19 09:21:22;;;;;;;21.48;6.90;;;;;;;28.70;70.75;100263.57;1783340;80;20900;-44
2022/08/19 09:23:49;;;;;;;19.73;8.05;;;;;;;28.89;71.52;100266.59;1783280;80;20924;-44
2022/08/19 09:26:18;;;;;;;14.78;6.53;;;;;;;28.90;69.99;100266.94;1783405;80;21278;-44
2022/08/19 09:28:46;;;;;;;17.37;6.85;;;;;;;28.70;71.12;100260.91;1783234;80;20932;-44
2022/08/19 09:31:14;;;;;;;17.17;6.87;;;;;;;28.80;69.42;100267.86;1783509;80;21506;-45
2022/08/19 09:33:43;;;;;;;26.90;7.90;;;;;;;28.99;70.64;100267.34;1783433;80;20888;-44
2022/08/19 09:36:12;;;;;;;19.70;6.92;;;;;;;29.33;71.04;100266.63;1783450;80;20999;-44
2022/08/19 09:38:42;;;;;;;15.72;7.35;;;;;;;29.67;69.74;100266.34;1783152;80;21091;-44
2022/08/19 09:41:13;;;;;;;18.02;8.23;;;;;;;29.70;68.53;100265.20;1783693;80;20941;-44
2022/08/19 09:43:42;;;;;;;16.02;7.95;;;;;;;29.74;68.69;100266.06;1783027;80;21069;-43
2022/08/19 09:46:09;;;;;;;17.87;7.15;;;;;;;29.88;67.00;100265.11;1783347;80;20920;-44
2022/08/19 09:48:38;;;;;;;19.15;7.53;;;;;;;30.07;67.11;100270.75;1783464;80;21031;-44
2022/08/19 09:51:07;;;;;;;21.87;7.45;;;;;;;30.27;66.41;100270.47;1783265;80;21277;-45
2022/08/19 09:53:35;;;;;;;23.90;7.25;;;;;;;30.18;65.89;100270.93;1783167;80;20880;-44
2022/08/19 09:56:03;;;;;;;13.50;7.25;;;;;;;29.92;67.41;100277.98;1783403;80;21002;-44
2022/08/19 09:58:31;;;;;;;16.40;7.05;;;;;;;29.80;66.79;100278.76;1753153;80;20992;-44
2022/08/19 10:00:59;;;;;;;14.30;6.30;;;;;;;29.87;69.84;100278.11;1783598;80;20920;-44
2022/08/19 10:03:27;;;;;;;17.67;7.03;;;;;;;30.07;69.14;100281.42;1783102;80;21303;-44
2022/08/19 10:05:54;;;;;;;16.80;7.53;;;;;;;30.06;67.35;100287.24;1776050;80;20885;-44
2022/08/19 10:08:25;;;;;;;17.62;7.00;;;;;;;30.07;67.14;100286.24;1775115;80;20964;-44
2022/08/19 10:10:52;;;;;;;20.40;6.87;;;;;;;30.08;67.06;100281.77;1774881;80;20909;-44
2022/08/19 10:13:24;;;;;;;20.15;6.97;;;;;;;30.16;66.52;100278.27;1775059;80;20940;-44
2022/08/19 10:15:55;;;;;;;18.37;7.05;;;;;;;30.26;65.66;100280.31;1775178;80;22199;-44
2022/08/19 10:18:23;;;;;;;12.43;6.70;;;;;;;30.33;64.53;100285.85;1774789;80;20935;-44
2022/08/19 10:20:52;;;;;;;19.48;6.83;;;;;;;30.33;65.05;100286.67;1774995;80;20869;-44
2022/08/19 10:23:20;;;;;;;20.12;7.08;;;;;;;30.43;65.27;100290.54;1774979;80;21004;-44
2022/08/19 10:25:47;;;;;;;17.62;6.47;;;;;;;30.46;63.10;100291.55;1775083;80;21023;-44
2022/08/19 10:28:14;;;;;;;17.20;6.85;;;;;;;30.46;63.74;100284.05;1775097;80;21758;-44
2022/08/19 10:30:42;;;;;;;15.78;7.08;;;;;;;30.63;64.39;100281.77;1775044;80;20925;-44
2022/08/19 10:33:09;;;;;;;20.12;6.87;;;;;;;30.89;64.42;100291.48;1774971;80;20978;-44
2022/08/19 10:35:36;;;;;;;16.42;6.85;;;;;;;31.01;61.49;100289.83;1775014;80;20897;-44
2022/08/19 10:38:03;;;;;;;14.55;7.17;;;;;;;31.02;61.70;100286.16;1775185;80;20980;-44
2022/08/19 10:40:31;;;;;;;12.07;6.22;;;;;;;30.95;60.03;100281.97;1775063;80;21223;-44
2022/08/19 10:42:58;;;;;;;28.27;7.12;;;;;;;30.92;59.54;100285.80;1775037;80;20976;-43
2022/08/19 10:45:26;;;;;;;20.80;7.05;;;;;;;30.97;61.61;100283.97;1774797;79;20944;-93
2022/08/19 10:47:53;;;;;;;19.32;6.40;;;;;;;31.00;59.24;100278.81;1774842;80;20936;-45
2022/08/19 10:53:08;;;;;;;13.00;6.95;;;;;;;31.14;58.44;100282.13;1775249;80;21155;-43
2022/08/19 10:58:23;;;;;;;;;;;;;;;31.22;60.09;100277.31;1777766;80;21542;-43
2022/08/19 11:00:55;;;;;;;21.30;6.75;;;;;;;30.80;60.49;100285.80;1775421;80;20093;-44
2022/08/19 11:03:22;;;;;;;17.07;6.33;;;;;;;30.24;61.10;100272.98;1774884;80;21553;-43
2022/08/19 11:06:05;;;;;;;21.60;7.20;;;;;;;30.20;64.94;100263.63;1780604;80;21462;-44
2022/08/19 11:08:34;;;;;;;13.93;6.85;;;;;;;30.50;62.04;100268.86;1783209;80;20987;-44
2022/08/19 11:11:02;;;;;;;20.10;6.80;;;;;;;30.62;62.13;100259.25;1783139;80;20976;-43
2022/08/19 11:13:37;;;;;;;18.32;6.35;;;;;;;30.66;62.22;100257.40;1783140;80;20896;-43
2022/08/19 11:16:13;;;;;;;17.02;6.90;;;;;;;30.88;61.81;100266.28;1783322;80;20944;-43
2022/08/19 11:18:44;;;;;;;20.65;6.78;;;;;;;30.83;60.28;100264.09;1783552;80;21158;-44
2022/08/19 11:21:18;;;;;;;15.70;6.95;;;;;;;30.53;62.97;100260.52;1783348;80;20936;-43
2022/08/19 11:23:50;;;;;;;25.62;7.15;;;;;;;30.68;61.75;100262.07;1783576;80;20968;-44
2022/08/19 11:26:17;;;;;;;16.75;6.30;;;;;;;31.01;61.33;100259.10;1783576;80;21062;-43
2022/08/19 11:28:44;;;;;;;18.37;6.53;;;;;;;30.87;59.95;100258.75;1783534;80;20928;-43
2022/08/19 11:31:14;;;;;;;21.80;6.65;;;;;;;30.72;61.04;100261.77;1783528;80;21239;-43
2022/08/19 11:33:41;;;;;;;13.95;6.40;;;;;;;30.51;61.68;100257.70;1783454;80;20972;-43
2022/08/19 11:36:08;;;;;;;13.48;6.53;;;;;;;30.33;62.50;100255.98;1783362;80;20938;-43
2022/08/19 11:38:35;;;;;;;20.60;6.28;;;;;;;30.09;63.92;100253.56;1783432;80;20897;-44
2022/08/19 11:41:05;;;;;;;19.98;6.30;;;;;;;30.04;64.02;100253.70;1783462;80;20905;-43
2022/08/19 11:43:34;;;;;;;11.35;6.03;;;;;;;30.14;64.19;100254.91;1748915;80;21881;-43
2022/08/19 11:46:11;;;;;;;27.70;6.58;;;;;;;30.38;64.47;100260.32;1783225;80;20837;-43
2022/08/19 11:48:38;;;;;;;18.30;7.08;;;;;;;30.46;62.26;100248.02;1783251;80;20860;-43